createdAt,value
2019-04-05T00:01:12.561Z,47.70
2019-04-05T00:03:42.100Z,47.53
2019-04-05T00:06:11.804Z,47.43
2019-04-05T00:08:41.731Z,47.43
2019-04-05T00:11:11.494Z,47.42
2019-04-05T00:13:41.176Z,47.34
2019-04-05T00:16:11.514Z,47.41
2019-04-05T00:18:41.160Z,47.30
2019-04-05T00:21:10.809Z,47.17
2019-04-05T00:23:40.743Z,47.31
2019-04-05T00:26:10.496Z,47.35
2019-04-05T00:28:40.412Z,47.40
2019-04-05T00:31:10.286Z,47.42
2019-04-05T00:33:39.992Z,47.39
2019-04-05T00:36:09.678Z,47.39
2019-04-05T00:38:39.675Z,47.30
2019-04-05T00:41:09.290Z,47.35
2019-04-05T00:43:39.264Z,47.40
2019-04-05T00:46:09.187Z,47.33
2019-04-05T00:48:38.814Z,47.47
2019-04-05T00:51:08.595Z,47.66
2019-04-05T00:53:39.595Z,47.85
2019-04-05T00:56:09.599Z,47.85
2019-04-05T00:58:39.461Z,47.81
2019-04-05T01:01:09.279Z,47.74
2019-04-05T01:03:38.937Z,47.74
2019-04-05T01:06:08.851Z,47.78
2019-04-05T01:08:38.773Z,47.95
2019-04-05T01:11:08.748Z,47.99
2019-04-05T01:13:39.723Z,47.83
2019-04-05T01:16:09.299Z,47.78
2019-04-05T01:18:38.956Z,47.82
2019-04-05T01:21:12.038Z,48.29
2019-04-05T01:23:42.715Z,48.26
2019-04-05T01:26:14.291Z,48.29
2019-04-05T01:28:44.445Z,48.37
2019-04-05T01:31:14.070Z,48.38
2019-04-05T01:33:44.011Z,48.32
2019-04-05T01:36:13.837Z,48.46
2019-04-05T01:38:43.595Z,48.48
2019-04-05T01:41:13.370Z,48.69
2019-04-05T01:43:43.194Z,48.93
2019-04-05T01:46:13.164Z,48.93
2019-04-05T01:48:43.165Z,48.92
2019-04-05T01:51:13.080Z,49.06
2019-04-05T01:53:43.029Z,49.07
2019-04-05T01:56:13.077Z,48.90
2019-04-05T01:58:43.068Z,48.90
2019-04-05T02:01:12.953Z,49.01
2019-04-05T02:03:42.663Z,49.05
2019-04-05T02:06:13.248Z,48.99
2019-04-05T02:08:43.222Z,49.16
2019-04-05T02:11:12.955Z,49.22
2019-04-05T02:13:42.862Z,49.32
2019-04-05T02:16:12.922Z,49.31
2019-04-05T02:18:42.660Z,49.36
2019-04-05T02:21:12.434Z,49.25
2019-04-05T02:23:42.233Z,49.36
2019-04-05T02:26:12.256Z,49.35
2019-04-05T02:28:41.973Z,49.48
2019-04-05T02:31:11.831Z,49.60
2019-04-05T02:33:41.550Z,49.65
2019-04-05T02:36:11.719Z,49.72
2019-04-05T02:38:41.461Z,49.67
2019-04-05T02:41:11.749Z,49.67
2019-04-05T02:43:43.922Z,49.63
2019-04-05T02:46:24.028Z,49.53
2019-04-05T02:48:49.702Z,49.64
2019-04-05T02:51:22.717Z,49.60
2019-04-05T02:53:54.932Z,49.51
2019-04-05T02:56:26.378Z,49.59
2019-04-05T02:58:57.819Z,49.65
2019-04-05T03:01:28.643Z,49.75
2019-04-05T03:04:00.031Z,49.62
2019-04-05T03:06:30.215Z,49.76
2019-04-05T03:09:01.252Z,49.87
2019-04-05T03:11:34.171Z,49.84
2019-04-05T03:14:04.729Z,49.86
2019-04-05T03:16:41.660Z,49.88
2019-04-05T03:19:19.439Z,49.97
2019-04-05T03:21:54.390Z,50.03
2019-04-05T03:24:28.047Z,50.32
2019-04-05T03:27:03.216Z,50.49
2019-04-05T03:29:33.888Z,50.57
2019-04-05T03:32:04.377Z,50.88
2019-04-05T03:34:34.669Z,50.88
2019-04-05T03:37:05.280Z,51.10
2019-04-05T03:39:35.393Z,51.14
2019-04-05T03:42:05.437Z,51.25
2019-04-05T03:44:36.666Z,51.37
2019-04-05T03:47:06.912Z,51.51
2019-04-05T03:49:36.898Z,51.22
2019-04-05T03:52:08.274Z,51.54
2019-04-05T03:54:38.495Z,51.67
2019-04-05T03:57:08.631Z,51.75
2019-04-05T03:59:39.020Z,51.91
2019-04-05T04:02:09.588Z,52.03
2019-04-05T04:04:39.921Z,52.25
2019-04-05T04:07:10.153Z,52.37
2019-04-05T04:09:40.402Z,52.37
2019-04-05T04:12:12.264Z,52.39
2019-04-05T04:14:42.243Z,52.73
2019-04-05T04:17:13.717Z,52.73
2019-04-05T04:19:45.207Z,52.55
2019-04-05T04:22:27.342Z,52.55
2019-04-05T04:24:59.525Z,52.58
2019-04-05T04:27:30.615Z,52.87
2019-04-05T04:30:00.914Z,52.87
2019-04-05T04:32:31.317Z,52.85
2019-04-05T04:35:02.451Z,53.36
2019-04-05T04:37:32.168Z,53.36
2019-04-05T04:40:02.081Z,53.38
2019-04-05T04:42:32.532Z,53.54
2019-04-05T04:45:11.838Z,53.86
2019-04-05T04:47:34.923Z,54.08
2019-04-05T04:50:06.347Z,54.14
2019-04-05T04:52:36.475Z,54.22
2019-04-05T04:55:06.595Z,54.23
2019-04-05T04:57:37.270Z,54.11
2019-04-05T05:00:08.289Z,54.16
2019-04-05T05:02:38.711Z,54.19
2019-04-05T05:05:09.653Z,54.15
2019-04-05T05:07:40.361Z,54.15
2019-04-05T05:10:11.118Z,54.76
2019-04-05T05:12:41.280Z,54.76
2019-04-05T05:15:12.654Z,55.03
2019-04-05T05:17:43.288Z,55.03
2019-04-05T05:20:14.509Z,55.25
2019-04-05T05:22:44.877Z,55.38
2019-04-05T05:25:16.296Z,55.54
2019-04-05T05:27:46.719Z,55.82
2019-04-05T05:30:16.499Z,55.82
2019-04-05T05:32:46.603Z,55.67
2019-04-05T05:35:16.651Z,55.76
2019-04-05T05:37:47.609Z,56.15
2019-04-05T05:40:18.507Z,56.15
2019-04-05T05:42:48.522Z,55.74
2019-04-05T05:45:18.989Z,56.07
2019-04-05T05:47:52.101Z,56.24
2019-04-05T05:50:21.421Z,56.09
2019-04-05T05:52:51.958Z,56.43
2019-04-05T05:55:22.063Z,56.16
2019-04-05T05:57:54.877Z,56.16
2019-04-05T06:00:25.198Z,56.20
2019-04-05T06:02:55.525Z,56.05
2019-04-05T06:05:25.622Z,56.25
2019-04-05T06:07:55.739Z,56.06
2019-04-05T06:10:25.854Z,56.05
2019-04-05T06:12:58.631Z,56.01
2019-04-05T06:15:28.026Z,56.05
2019-04-05T06:20:30.537Z,55.93
2019-04-05T06:23:00.728Z,55.77
2019-04-05T06:25:30.666Z,55.61
2019-04-05T06:28:00.426Z,55.56
2019-04-05T06:30:30.449Z,55.41
2019-04-05T06:33:00.538Z,55.15
2019-04-05T06:35:30.076Z,54.97
2019-04-05T06:35:39.483Z,55.83
2019-04-05T06:38:00.034Z,54.71
2019-04-05T06:40:40.060Z,54.63
2019-04-05T06:43:01.195Z,54.67
2019-04-05T06:45:30.766Z,54.53
2019-04-05T06:48:00.488Z,54.25
2019-04-05T06:50:30.290Z,54.38
2019-04-05T06:52:59.940Z,54.38
2019-04-05T06:55:29.827Z,53.71
2019-04-05T06:57:59.896Z,53.66
2019-04-05T07:00:30.745Z,53.66
2019-04-05T07:03:01.329Z,53.49
2019-04-05T07:05:31.368Z,52.92
2019-04-05T07:08:01.684Z,52.92
2019-04-05T07:10:32.298Z,52.77
2019-04-05T07:13:02.479Z,52.76
2019-04-05T07:15:32.257Z,52.62
2019-04-05T07:18:02.543Z,52.53
2019-04-05T07:20:32.307Z,52.31
2019-04-05T07:23:01.889Z,52.31
2019-04-05T07:25:32.030Z,51.81
2019-04-05T07:28:02.018Z,51.81
2019-04-05T07:30:32.708Z,51.93
2019-04-05T07:33:02.742Z,51.57
2019-04-05T07:35:33.738Z,51.36
2019-04-05T07:38:03.819Z,51.36
2019-04-05T07:40:33.501Z,51.40
2019-04-05T07:43:03.376Z,51.29
2019-04-05T07:45:33.481Z,51.11
2019-04-05T07:48:03.354Z,50.85
2019-04-05T07:50:33.223Z,50.63
2019-04-05T07:53:04.105Z,50.63
2019-04-05T07:55:34.206Z,50.76
2019-04-05T07:58:04.115Z,50.41
2019-04-05T08:00:54.702Z,50.41
2019-04-05T08:03:25.695Z,50.10
2019-04-05T08:05:56.278Z,50.10
2019-04-05T08:08:48.118Z,49.76
2019-04-05T08:11:18.952Z,49.47
2019-04-05T08:13:50.161Z,49.30
2019-04-05T08:16:20.834Z,49.24
2019-04-05T08:18:57.529Z,48.93
2019-04-05T08:21:23.195Z,48.84
2019-04-05T08:23:53.155Z,48.54
2019-04-05T08:26:22.941Z,48.38
2019-04-05T08:28:53.253Z,48.05
2019-04-05T08:31:23.137Z,47.91
2019-04-05T08:33:53.437Z,47.69
2019-04-05T08:36:23.702Z,47.44
2019-04-05T08:38:53.727Z,47.54
2019-04-05T08:41:23.542Z,47.05
2019-04-05T08:43:53.506Z,46.41
2019-04-05T08:46:23.387Z,46.73
2019-04-05T08:48:53.565Z,46.71
2019-04-05T08:51:23.718Z,46.82
2019-04-05T08:53:53.639Z,46.85
2019-04-05T08:56:23.331Z,46.78
2019-04-05T08:58:53.612Z,46.55
2019-04-05T09:01:23.467Z,46.44
2019-04-05T09:03:53.478Z,46.33
2019-04-05T09:06:23.766Z,46.28
2019-04-05T09:08:53.943Z,46.18
2019-04-05T09:11:23.675Z,46.11
2019-04-05T09:13:53.680Z,45.86
2019-04-05T09:16:23.326Z,45.68
2019-04-05T09:18:53.394Z,45.74
2019-04-05T09:21:23.265Z,45.46
2019-04-05T09:23:53.232Z,45.35
2019-04-05T09:26:23.295Z,45.21
2019-04-05T09:28:53.100Z,44.79
2019-04-05T09:31:22.896Z,44.27
2019-04-05T09:33:52.976Z,43.78
2019-04-05T09:36:22.920Z,42.86
2019-04-05T09:38:52.871Z,41.77
2019-04-05T09:41:22.574Z,40.30
2019-04-05T09:43:52.244Z,39.61
2019-04-05T09:46:21.816Z,38.53
2019-04-05T09:48:51.631Z,36.90
2019-04-05T09:51:21.899Z,36.25
2019-04-05T09:53:51.727Z,35.54
2019-04-05T09:56:21.722Z,36.09
2019-04-05T09:58:51.433Z,36.21
2019-04-05T10:01:21.441Z,36.44
2019-04-05T10:03:51.407Z,36.13
2019-04-05T10:06:21.570Z,35.81
2019-04-05T10:08:51.124Z,34.70
2019-04-05T10:11:21.021Z,35.28
2019-04-05T10:13:51.078Z,35.23
2019-04-05T10:16:22.124Z,34.60
2019-04-05T10:18:52.082Z,35.43
2019-04-05T10:21:21.993Z,35.39
2019-04-05T10:23:51.655Z,35.25
2019-04-05T10:26:21.251Z,34.82
2019-04-05T10:28:51.247Z,34.99
2019-04-05T10:31:20.807Z,34.88
2019-04-05T10:33:50.493Z,34.91
2019-04-05T10:36:20.629Z,34.88
2019-04-05T10:38:50.589Z,34.66
2019-04-05T10:41:22.926Z,33.73
2019-04-05T10:43:51.809Z,34.12
2019-04-05T10:46:21.505Z,34.09
2019-04-05T10:48:51.265Z,34.32
2019-04-05T10:51:21.343Z,34.14
2019-04-05T10:53:51.291Z,34.27
2019-04-05T10:56:21.282Z,34.36
2019-04-05T10:58:51.121Z,34.27
2019-04-05T11:01:20.805Z,33.79
2019-04-05T11:03:50.945Z,34.06
2019-04-05T11:06:20.890Z,34.03
2019-04-05T11:08:50.969Z,34.21
2019-04-05T11:11:20.998Z,34.22
2019-04-05T11:13:50.841Z,34.02
2019-04-05T11:16:20.616Z,33.86
2019-04-05T11:18:50.227Z,33.75
2019-04-05T11:21:20.070Z,33.61
2019-04-05T11:23:49.687Z,33.61
2019-04-05T11:26:19.948Z,33.83
2019-04-05T11:28:49.905Z,33.51
2019-04-05T11:31:19.534Z,33.78
2019-04-05T11:33:49.331Z,33.78
2019-04-05T11:36:20.299Z,33.92
2019-04-05T11:38:51.029Z,33.68
2019-04-05T11:41:22.972Z,33.71
2019-04-05T11:43:55.454Z,33.62
2019-04-05T11:46:26.237Z,33.80
2019-04-05T11:48:57.124Z,33.84
2019-04-05T11:51:27.429Z,33.85
2019-04-05T11:53:57.415Z,33.89
2019-04-05T11:56:27.627Z,33.83
2019-04-05T11:58:57.705Z,33.83
2019-04-05T12:01:32.869Z,33.82
2019-04-05T12:04:02.741Z,33.84
2019-04-05T12:06:35.054Z,33.65
2019-04-05T12:09:06.906Z,33.79
2019-04-05T12:11:37.285Z,33.73
2019-04-05T12:14:06.891Z,33.80
2019-04-05T12:16:36.751Z,33.62
2019-04-05T12:19:06.747Z,33.48
2019-04-05T12:21:36.344Z,33.28
2019-04-05T12:24:06.185Z,33.34
2019-04-05T12:26:36.199Z,33.50
2019-04-05T12:29:06.007Z,33.49
2019-04-05T12:31:35.875Z,33.37
2019-04-05T12:34:05.498Z,33.46
2019-04-05T12:36:35.320Z,33.48
2019-04-05T12:39:08.239Z,33.31
2019-04-05T12:41:40.986Z,33.12
2019-04-05T12:44:14.310Z,33.08
2019-04-05T12:46:43.473Z,33.05
2019-04-05T12:49:15.317Z,33.01
2019-04-05T12:51:45.591Z,33.01
2019-04-05T12:54:16.224Z,32.86
2019-04-05T12:56:46.048Z,32.69
2019-04-05T12:59:15.810Z,32.84
2019-04-05T13:01:46.564Z,32.52
2019-04-05T13:04:16.531Z,32.38
2019-04-05T13:06:46.486Z,31.77
2019-04-05T13:09:17.038Z,32.13
2019-04-05T13:11:46.996Z,31.89
2019-04-05T13:14:16.714Z,32.07
2019-04-05T13:16:49.423Z,31.87
2019-04-05T13:19:18.363Z,31.67
2019-04-05T13:21:48.204Z,31.94
2019-04-05T13:24:17.916Z,32.01
2019-04-05T13:26:48.078Z,31.74
2019-04-05T13:29:19.659Z,31.64
2019-04-05T13:31:49.477Z,31.76
2019-04-05T13:34:19.640Z,31.71
2019-04-05T13:36:49.344Z,31.79
2019-04-05T13:39:19.154Z,31.89
2019-04-05T13:41:49.368Z,31.90
2019-04-05T13:44:19.133Z,31.65
2019-04-05T13:46:48.708Z,31.71
2019-04-05T13:49:18.707Z,31.81
2019-04-05T13:51:48.354Z,31.87
2019-04-05T13:54:18.007Z,31.73
2019-04-05T13:56:47.987Z,31.81
2019-04-05T13:59:17.845Z,31.87
2019-04-05T14:01:50.920Z,31.88
2019-04-05T14:04:20.999Z,31.83
2019-04-05T14:06:53.397Z,32.03
2019-04-05T14:09:22.829Z,31.94
2019-04-05T14:11:52.873Z,31.86
2019-04-05T14:14:22.520Z,31.49
2019-04-05T14:16:54.191Z,31.78
2019-04-05T14:19:23.953Z,31.87
2019-04-05T14:21:53.847Z,31.83
2019-04-05T14:24:24.318Z,31.90
2019-04-05T14:26:54.458Z,32.09
2019-04-05T14:29:24.477Z,32.19
2019-04-05T14:31:54.345Z,32.23
2019-04-05T14:34:24.886Z,32.34
2019-04-05T14:36:54.468Z,32.35
2019-04-05T14:39:24.746Z,32.26
2019-04-05T14:41:55.016Z,32.33
2019-04-05T14:44:24.872Z,32.40
2019-04-05T14:46:55.860Z,32.34
2019-04-05T14:49:30.303Z,32.21
2019-04-05T14:52:00.737Z,32.12
2019-04-05T14:54:30.853Z,32.36
2019-04-05T14:57:05.446Z,32.53
2019-04-05T14:59:32.885Z,32.61
2019-04-05T15:02:02.671Z,32.59
2019-04-05T15:04:32.342Z,32.57
2019-04-05T15:07:02.108Z,32.73
2019-04-05T15:09:31.883Z,32.72
2019-04-05T15:12:01.904Z,32.75
2019-04-05T15:14:31.749Z,32.88
2019-04-05T15:17:01.625Z,32.94
2019-04-05T15:19:31.411Z,33.07
2019-04-05T15:22:05.984Z,33.05
2019-04-05T15:24:32.812Z,33.08
2019-04-05T15:27:02.962Z,33.17
2019-04-05T15:29:32.592Z,33.21
2019-04-05T15:32:02.885Z,33.28
2019-04-05T15:34:33.018Z,33.35
2019-04-05T15:37:02.699Z,33.33
2019-04-05T15:39:32.379Z,33.36
2019-04-05T15:42:02.675Z,33.46
2019-04-05T15:44:32.975Z,33.53
2019-04-05T15:47:02.622Z,33.53
2019-04-05T15:49:32.490Z,33.64
2019-04-05T15:52:02.227Z,33.67
2019-04-05T15:54:33.350Z,33.74
2019-04-05T15:57:04.431Z,33.76
2019-04-05T15:59:34.177Z,33.81
2019-04-05T16:02:04.430Z,33.92
2019-04-05T16:04:34.798Z,33.94
2019-04-05T16:07:04.792Z,34.02
2019-04-05T16:09:34.539Z,33.98
2019-04-05T16:12:05.172Z,34.02
2019-04-05T16:14:34.864Z,33.96
2019-04-05T16:17:04.695Z,34.05
2019-04-05T16:19:36.049Z,34.00
2019-04-05T16:22:05.808Z,34.10
2019-04-05T16:24:35.779Z,34.33
2019-04-05T16:27:05.938Z,34.31
2019-04-05T16:29:35.635Z,34.44
2019-04-05T16:32:06.862Z,34.42
2019-04-05T16:34:37.010Z,34.46
2019-04-05T16:37:07.193Z,34.08
2019-04-05T16:39:36.888Z,34.37
2019-04-05T16:42:10.102Z,34.42
2019-04-05T16:44:38.591Z,34.47
2019-04-05T16:47:08.733Z,34.78
2019-04-05T16:49:38.543Z,34.59
2019-04-05T16:52:08.059Z,34.57
2019-04-05T16:54:38.101Z,34.57
2019-04-05T16:57:08.124Z,34.49
2019-04-05T16:59:37.910Z,34.49
2019-04-05T17:02:08.223Z,34.55
2019-04-05T17:04:37.952Z,34.45
2019-04-05T17:07:07.734Z,34.57
2019-04-05T17:09:37.757Z,34.57
2019-04-05T17:12:07.706Z,34.61
2019-04-05T17:14:37.511Z,34.55
2019-04-05T17:17:07.406Z,34.64
2019-04-05T17:19:37.495Z,34.59
2019-04-05T17:22:07.210Z,34.64
2019-04-05T17:24:36.769Z,34.66
2019-04-05T17:27:06.774Z,34.69
2019-04-05T17:29:36.417Z,34.58
2019-04-05T17:32:06.346Z,34.58
2019-04-05T17:34:37.369Z,34.47
2019-04-05T17:37:07.450Z,34.45
2019-04-05T17:39:37.492Z,34.54
2019-04-05T17:42:07.746Z,34.44
2019-04-05T17:44:37.951Z,34.52
2019-04-05T17:47:07.672Z,34.47
2019-04-05T17:49:37.684Z,34.63
2019-04-05T17:52:07.722Z,34.64
2019-04-05T17:54:37.478Z,34.69
2019-04-05T17:57:07.597Z,34.70
2019-04-05T17:59:38.594Z,34.71
2019-04-05T18:02:08.625Z,34.80
2019-04-05T18:04:39.251Z,34.84
2019-04-05T18:07:09.495Z,34.92
2019-04-05T18:09:39.143Z,34.86
2019-04-05T18:12:09.061Z,34.89
2019-04-05T18:14:39.136Z,35.01
2019-04-05T18:17:08.741Z,35.04
2019-04-05T18:19:38.657Z,35.07
2019-04-05T18:22:08.714Z,35.05
2019-04-05T18:24:38.472Z,35.04
2019-04-05T18:27:08.336Z,35.13
2019-04-05T18:29:38.299Z,35.16
2019-04-05T18:32:08.169Z,35.22
2019-04-05T18:34:37.726Z,35.28
2019-04-05T18:37:07.638Z,35.34
2019-04-05T18:39:37.481Z,35.26
2019-04-05T18:42:07.333Z,35.32
2019-04-05T18:44:37.385Z,35.33
2019-04-05T18:47:15.550Z,35.44
2019-04-05T18:49:45.755Z,35.63
2019-04-05T18:52:15.473Z,35.81
2019-04-05T18:54:45.279Z,36.00
2019-04-05T18:57:15.499Z,36.26
2019-04-05T18:59:45.353Z,36.62
2019-04-05T19:02:14.923Z,36.92
2019-04-05T19:04:44.839Z,37.04
2019-04-05T19:07:14.539Z,37.37
2019-04-05T19:09:44.561Z,37.56
2019-04-05T19:12:15.035Z,37.57
2019-04-05T19:14:44.916Z,37.69
2019-04-05T19:17:23.758Z,37.72
2019-04-05T19:19:46.670Z,37.74
2019-04-05T19:22:16.231Z,38.03
2019-04-05T19:24:45.882Z,38.12
2019-04-05T19:27:15.646Z,38.15
2019-04-05T19:29:45.439Z,38.16
2019-04-05T19:49:57.380Z,37.61
2019-04-05T19:52:29.982Z,37.45
2019-04-05T19:55:00.278Z,37.43
2019-04-05T19:57:32.352Z,37.21
2019-04-05T20:00:02.549Z,37.28
2019-04-05T20:02:32.359Z,37.14
2019-04-05T20:05:02.382Z,37.20
2019-04-05T20:07:32.576Z,37.23
2019-04-05T20:10:02.485Z,37.27
2019-04-05T20:12:32.124Z,37.23
2019-04-05T20:15:02.160Z,37.19
2019-04-05T20:17:34.041Z,37.09
2019-04-05T20:20:04.922Z,37.18
2019-04-05T20:22:35.127Z,37.30
2019-04-05T20:25:05.789Z,37.22
2019-04-05T20:27:35.778Z,37.08
2019-04-05T20:30:07.009Z,36.86
2019-04-05T20:32:37.185Z,37.15
2019-04-05T20:35:07.337Z,36.90
2019-04-05T20:37:36.885Z,36.82
2019-04-05T20:40:07.830Z,36.76
2019-04-05T20:42:37.762Z,36.69
2019-04-05T20:45:08.015Z,36.66
2019-04-05T20:47:38.226Z,36.61
2019-04-05T20:50:08.731Z,36.05
2019-04-05T20:52:38.390Z,36.31
2019-04-05T20:55:08.975Z,36.23
2019-04-05T20:57:38.710Z,36.32
2019-04-05T21:00:10.547Z,36.25
2019-04-05T21:02:40.459Z,36.26
2019-04-05T21:05:10.315Z,36.14
2019-04-05T21:07:40.361Z,36.15
2019-04-05T21:10:10.469Z,36.36
2019-04-05T21:12:40.276Z,36.16
2019-04-05T21:15:10.633Z,36.24
2019-04-05T21:17:40.384Z,36.03
2019-04-05T21:20:10.593Z,36.06
2019-04-05T21:22:40.486Z,36.20
2019-04-05T21:25:10.451Z,36.26
2019-04-05T21:27:39.956Z,36.51
2019-04-05T21:30:09.989Z,36.71
2019-04-05T21:32:40.041Z,36.89
2019-04-05T21:35:10.034Z,37.11
2019-04-05T21:37:39.688Z,36.99
2019-04-05T21:40:09.958Z,37.13
2019-04-05T21:42:39.754Z,37.08
2019-04-05T21:45:09.641Z,36.92
2019-04-05T21:47:39.752Z,36.93
2019-04-05T21:50:11.084Z,36.85
2019-04-05T21:52:41.010Z,36.68
2019-04-05T21:55:11.081Z,36.63
2019-04-05T21:57:41.025Z,36.68
2019-04-05T22:00:17.653Z,36.75
2019-04-05T22:02:47.427Z,36.67
2019-04-05T22:05:17.579Z,36.65
2019-04-05T22:07:47.666Z,36.75
2019-04-05T22:10:17.492Z,36.82
2019-04-05T22:12:47.328Z,36.80
2019-04-05T22:15:17.296Z,36.94
2019-04-05T22:17:46.892Z,37.08
2019-04-05T22:20:16.690Z,37.06
2019-04-05T22:22:46.810Z,36.92
2019-04-05T22:25:16.498Z,36.98
2019-04-05T22:27:46.193Z,37.14
2019-04-05T22:30:16.077Z,37.18
2019-04-05T22:32:45.966Z,37.18
2019-04-05T22:35:15.982Z,37.17
2019-04-05T22:37:45.732Z,37.25
2019-04-05T22:40:15.902Z,37.24
2019-04-05T22:42:45.932Z,37.28
2019-04-05T22:45:15.764Z,37.54
2019-04-05T22:47:45.264Z,37.58
2019-04-05T22:50:15.460Z,37.54
2019-04-05T22:52:45.176Z,37.58
2019-04-05T22:55:14.764Z,37.72
2019-04-05T22:57:44.789Z,37.77
2019-04-05T23:00:15.890Z,37.99
2019-04-05T23:02:45.860Z,38.05
2019-04-05T23:05:15.581Z,37.97
2019-04-05T23:07:45.221Z,38.09
2019-04-05T23:10:16.601Z,38.27
2019-04-05T23:12:46.179Z,38.33
2019-04-05T23:15:16.014Z,38.30
2019-04-05T23:17:45.843Z,38.27
2019-04-05T23:20:15.714Z,38.37
2019-04-05T23:22:45.617Z,38.34
2019-04-05T23:25:21.851Z,38.34
2019-04-05T23:27:47.188Z,38.53
2019-04-05T23:30:18.452Z,38.67
2019-04-05T23:32:48.184Z,38.84
2019-04-05T23:35:17.787Z,39.00
2019-04-05T23:37:48.146Z,39.16
2019-04-05T23:40:17.727Z,39.14
2019-04-05T23:42:47.526Z,39.09
2019-04-05T23:45:17.509Z,39.07
2019-04-05T23:47:47.201Z,39.17
2019-04-05T23:50:17.087Z,39.18
2019-04-05T23:52:47.076Z,39.39
2019-04-05T23:55:17.141Z,39.49
2019-04-05T23:57:47.084Z,39.55
